Aviation Digital Data Service (ADDS)

Output produced by METARs form (0202 UTC 24 April 2014)
found at http://aviationweather.gov/adds/metars/
 
KLCH 232327Z 2400/2424 19005KT P6SM SKC 
     FM240500 VRB03KT 4SM BR SCT007 
     FM240800 VRB03KT 2SM BR OVC007 
     FM241500 18008KT P6SM BKN025 
     FM241800 19012G20KT P6SM SCT035